Time;durP1;ratioP1;P1;durP2;ratioP2;P2;SDS_P1;SDS_P2;PMS_P1;PMS_P2;Temp;Humidity;BMP_temperature;BMP_pressure;BME280_temperature;BME280_humidity;BME280_pressure;Samples;Min_cycle;Max_cycle;Signal;HPM_P1;HPM_P2
2022/05/25 06:02:14;;;;;;;4.28;2.53;;;;;;;;;;10587082;27;20409;-84
2022/05/25 06:07:15;;;;;;;5.22;3.10;;;;;;;;;;10588254;28;20466;-85
2022/05/25 06:12:16;;;;;;;;;;;;;;;;;;10586346;28;20028;-84
2022/05/25 06:39:58;;;;;;;3.38;2.35;;;;;;;;;;10328877;28;20115;-91
2022/05/25 06:56:26;;;;;;;3.60;1.90;;;;;;;;;;10343351;28;20412;-90
2022/05/25 07:01:43;;;;;;;3.50;1.42;;;;;;;;;;10419386;28;20043;-88
2022/05/25 07:07:12;;;;;;;5.00;2.50;;;;;;;;;;10494730;28;20035;-84
2022/05/25 07:12:19;;;;;;;2.50;1.35;;;;;;;;;;10481350;28;20037;-83
2022/05/25 07:17:30;;;;;;;3.10;2.10;;;;;;;;;;10475873;28;20438;-83
2022/05/25 07:22:51;;;;;;;3.00;1.65;;;;;;;;;;10455548;28;20490;-84
2022/05/25 07:27:57;;;;;;;4.22;2.55;;;;;;;;;;10477101;28;20033;-83
2022/05/25 07:33:35;;;;;;;4.13;2.28;;;;;;;;;;10457920;28;20580;-85
2022/05/25 07:38:39;;;;;;;4.45;1.95;;;;;;;;;;10208932;29;20036;-83
2022/05/25 07:43:53;;;;;;;2.65;1.60;;;;;;;;;;10186648;29;20495;-85
2022/05/25 07:49:33;;;;;;;4.35;1.80;;;;;;;;;;10118994;29;20045;-85
2022/05/25 09:20:22;;;;;;;3.95;1.88;;;;;;;;;;10484951;28;20041;-83
2022/05/25 12:53:11;;;;;;;1.65;1.10;;;;;;;;;;10473163;28;20041;-82
2022/05/25 13:05:04;;;;;;;5.82;1.58;;;;;;;;;;10468924;28;20028;-81
2022/05/25 13:10:44;;;;;;;4.65;1.80;;;;;;;;;;10299925;28;20031;-82
2022/05/25 13:15:54;;;;;;;3.53;1.63;;;;;;;;;;10140529;29;20595;-81
2022/05/25 13:21:23;;;;;;;3.47;1.45;;;;;;;;;;10279389;28;20035;-82
2022/05/25 13:26:50;;;;;;;2.78;1.70;;;;;;;;;;10281536;28;20035;-83
2022/05/25 13:37:55;;;;;;;3.15;0.93;;;;;;;;;;10475564;28;20017;-83
2022/05/25 13:43:00;;;;;;;2.95;1.20;;;;;;;;;;10436981;28;20033;-83
2022/05/25 13:48:23;;;;;;;1.70;1.10;;;;;;;;;;10448465;28;20113;-82
2022/05/25 13:54:09;;;;;;;1.90;1.27;;;;;;;;;;10468552;28;20133;-84
2022/05/25 13:59:39;;;;;;;3.33;1.20;;;;;;;;;;10473997;28;20025;-83
2022/05/25 14:04:42;;;;;;;3.47;1.50;;;;;;;;;;10466584;28;20040;-82
2022/05/25 14:21:04;;;;;;;1.83;0.90;;;;;;;;;;10476280;28;20479;-82
2022/05/25 14:26:09;;;;;;;2.15;0.98;;;;;;;;;;10479540;28;20060;-83
2022/05/25 14:31:41;;;;;;;3.55;1.13;;;;;;;;;;10444238;28;20033;-82
2022/05/25 14:36:54;;;;;;;2.03;0.93;;;;;;;;;;10471880;28;20105;-82
2022/05/25 14:42:14;;;;;;;3.53;1.20;;;;;;;;;;10484683;28;20041;-83
2022/05/25 14:53:58;;;;;;;1.93;0.87;;;;;;;;;;10481153;28;20033;-80
2022/05/25 14:59:15;;;;;;;2.25;1.10;;;;;;;;;;10463799;28;20041;-83
2022/05/25 15:04:40;;;;;;;2.35;1.27;;;;;;;;;;10467763;28;20140;-84
2022/05/25 15:09:51;;;;;;;2.67;1.10;;;;;;;;;;10458450;28;20052;-82
2022/05/25 15:21:16;;;;;;;2.85;1.80;;;;;;;;;;10352891;28;20026;-83
2022/05/25 15:27:10;;;;;;;3.55;1.17;;;;;;;;;;10266074;29;20027;-83
2022/05/25 15:49:55;;;;;;;3.05;1.20;;;;;;;;;;10179479;29;20043;-83
2022/05/25 15:55:24;;;;;;;1.48;0.90;;;;;;;;;;10200055;29;20059;-83
2022/05/25 16:01:02;;;;;;;1.90;1.10;;;;;;;;;;10207541;29;20095;-85
2022/05/25 16:17:42;;;;;;;2.78;1.00;;;;;;;;;;10151069;29;20052;-86
2022/05/25 16:28:27;;;;;;;5.93;2.92;;;;;;;;;;10331670;28;20032;-87
2022/05/25 16:33:30;;;;;;;3.45;1.48;;;;;;;;;;10447868;28;20029;-87
2022/05/25 16:38:55;;;;;;;2.80;1.60;;;;;;;;;;10495180;28;20554;-86
2022/05/25 16:44:08;;;;;;;2.65;1.50;;;;;;;;;;10459723;28;20103;-86
2022/05/25 16:49:12;;;;;;;3.13;0.93;;;;;;;;;;10445573;28;20501;-87
2022/05/25 16:54:38;;;;;;;2.05;1.42;;;;;;;;;;10443324;28;20469;-87
2022/05/25 17:45:51;;;;;;;2.78;1.08;;;;;;;;;;10295606;28;20067;-86
